sensor_id;sensor_type;location;lat;lon;timestamp;P1;P2;P0
81998;PMS5003;71598;46.516;-122.928;2023-08-06T00:00:01;15;15;
81998;PMS5003;71598;46.516;-122.928;2023-08-06T00:02:27;13;12;
81998;PMS5003;71598;46.516;-122.928;2023-08-06T00:04:52;12;12;
81998;PMS5003;71598;46.516;-122.928;2023-08-06T00:07:17;13;13;
81998;PMS5003;71598;46.516;-122.928;2023-08-06T00:09:42;17;17;
81998;PMS5003;71598;46.516;-122.928;2023-08-06T00:12:08;12;11;
81998;PMS5003;71598;46.516;-122.928;2023-08-06T00:14:33;13;13;
81998;PMS5003;71598;46.516;-122.928;2023-08-06T00:16:59;13;13;
81998;PMS5003;71598;46.516;-122.928;2023-08-06T00:19:24;14;14;
81998;PMS5003;71598;46.516;-122.928;2023-08-06T00:21:49;15;15;
81998;PMS5003;71598;46.516;-122.928;2023-08-06T00:24:14;10;10;
81998;PMS5003;71598;46.516;-122.928;2023-08-06T00:26:40;14;14;
81998;PMS5003;71598;46.516;-122.928;2023-08-06T00:29:05;18;17;
81998;PMS5003;71598;46.516;-122.928;2023-08-06T00:31:31;17;17;
81998;PMS5003;71598;46.516;-122.928;2023-08-06T00:33:57;18;17;
81998;PMS5003;71598;46.516;-122.928;2023-08-06T00:36:21;15;15;
81998;PMS5003;71598;46.516;-122.928;2023-08-06T00:38:46;14;14;
81998;PMS5003;71598;46.516;-122.928;2023-08-06T00:41:12;12;12;
81998;PMS5003;71598;46.516;-122.928;2023-08-06T00:43:37;18;18;
81998;PMS5003;71598;46.516;-122.928;2023-08-06T00:46:03;15;15;
81998;PMS5003;71598;46.516;-122.928;2023-08-06T00:48:28;13;13;
81998;PMS5003;71598;46.516;-122.928;2023-08-06T00:50:53;13;12;
81998;PMS5003;71598;46.516;-122.928;2023-08-06T00:53:19;11;11;
81998;PMS5003;71598;46.516;-122.928;2023-08-06T00:55:44;14;14;
81998;PMS5003;71598;46.516;-122.928;2023-08-06T00:58:10;13;13;
81998;PMS5003;71598;46.516;-122.928;2023-08-06T01:00:35;14;14;
81998;PMS5003;71598;46.516;-122.928;2023-08-06T01:03:01;13;13;
81998;PMS5003;71598;46.516;-122.928;2023-08-06T01:05:25;15;14;
81998;PMS5003;71598;46.516;-122.928;2023-08-06T01:07:59;13;13;
81998;PMS5003;71598;46.516;-122.928;2023-08-06T01:10:21;13;13;
81998;PMS5003;71598;46.516;-122.928;2023-08-06T01:12:42;11;11;
81998;PMS5003;71598;46.516;-122.928;2023-08-06T01:15:07;14;14;
81998;PMS5003;71598;46.516;-122.928;2023-08-06T01:17:31;20;19;
81998;PMS5003;71598;46.516;-122.928;2023-08-06T01:19:56;19;18;
81998;PMS5003;71598;46.516;-122.928;2023-08-06T01:22:22;23;21;
81998;PMS5003;71598;46.516;-122.928;2023-08-06T01:24:48;22;21;
81998;PMS5003;71598;46.516;-122.928;2023-08-06T01:27:14;20;20;
81998;PMS5003;71598;46.516;-122.928;2023-08-06T01:29:39;21;21;
81998;PMS5003;71598;46.516;-122.928;2023-08-06T01:32:04;21;20;
81998;PMS5003;71598;46.516;-122.928;2023-08-06T01:34:30;21;21;
81998;PMS5003;71598;46.516;-122.928;2023-08-06T01:36:55;22;22;
81998;PMS5003;71598;46.516;-122.928;2023-08-06T01:39:20;19;19;
81998;PMS5003;71598;46.516;-122.928;2023-08-06T01:41:45;24;24;
81998;PMS5003;71598;46.516;-122.928;2023-08-06T01:44:11;22;22;
81998;PMS5003;71598;46.516;-122.928;2023-08-06T01:46:36;20;20;
81998;PMS5003;71598;46.516;-122.928;2023-08-06T01:49:01;18;18;
81998;PMS5003;71598;46.516;-122.928;2023-08-06T01:51:26;27;27;
81998;PMS5003;71598;46.516;-122.928;2023-08-06T01:53:51;24;24;
81998;PMS5003;71598;46.516;-122.928;2023-08-06T01:56:16;27;27;
81998;PMS5003;71598;46.516;-122.928;2023-08-06T01:58:42;26;25;
81998;PMS5003;71598;46.516;-122.928;2023-08-06T02:01:07;28;27;
81998;PMS5003;71598;46.516;-122.928;2023-08-06T02:03:34;29;29;
81998;PMS5003;71598;46.516;-122.928;2023-08-06T02:05:58;23;23;
81998;PMS5003;71598;46.516;-122.928;2023-08-06T02:08:23;31;31;
81998;PMS5003;71598;46.516;-122.928;2023-08-06T02:10:49;34;33;
81998;PMS5003;71598;46.516;-122.928;2023-08-06T02:13:14;31;30;
81998;PMS5003;71598;46.516;-122.928;2023-08-06T02:15:42;35;35;
81998;PMS5003;71598;46.516;-122.928;2023-08-06T02:18:05;39;38;
81998;PMS5003;71598;46.516;-122.928;2023-08-06T02:20:30;33;33;
81998;PMS5003;71598;46.516;-122.928;2023-08-06T02:22:55;39;39;
81998;PMS5003;71598;46.516;-122.928;2023-08-06T02:25:21;31;31;
81998;PMS5003;71598;46.516;-122.928;2023-08-06T02:27:46;31;30;
81998;PMS5003;71598;46.516;-122.928;2023-08-06T02:30:11;42;40;
81998;PMS5003;71598;46.516;-122.928;2023-08-06T02:32:36;35;34;
81998;PMS5003;71598;46.516;-122.928;2023-08-06T02:35:02;37;36;
81998;PMS5003;71598;46.516;-122.928;2023-08-06T02:37:26;38;38;
81998;PMS5003;71598;46.516;-122.928;2023-08-06T02:39:52;38;38;
81998;PMS5003;71598;46.516;-122.928;2023-08-06T02:42:17;34;34;
81998;PMS5003;71598;46.516;-122.928;2023-08-06T02:44:42;38;37;
81998;PMS5003;71598;46.516;-122.928;2023-08-06T02:47:08;36;36;
81998;PMS5003;71598;46.516;-122.928;2023-08-06T02:49:33;33;33;
81998;PMS5003;71598;46.516;-122.928;2023-08-06T02:51:59;37;37;
81998;PMS5003;71598;46.516;-122.928;2023-08-06T02:54:24;38;38;
81998;PMS5003;71598;46.516;-122.928;2023-08-06T02:56:49;39;37;
81998;PMS5003;71598;46.516;-122.928;2023-08-06T02:59:14;38;38;
81998;PMS5003;71598;46.516;-122.928;2023-08-06T03:01:40;36;36;
81998;PMS5003;71598;46.516;-122.928;2023-08-06T03:04:07;39;38;
81998;PMS5003;71598;46.516;-122.928;2023-08-06T03:06:30;30;29;
81998;PMS5003;71598;46.516;-122.928;2023-08-06T03:08:56;39;37;
81998;PMS5003;71598;46.516;-122.928;2023-08-06T03:11:21;35;34;
81998;PMS5003;71598;46.516;-122.928;2023-08-06T03:13:46;38;36;
81998;PMS5003;71598;46.516;-122.928;2023-08-06T03:16:12;37;35;
81998;PMS5003;71598;46.516;-122.928;2023-08-06T03:18:37;36;36;
81998;PMS5003;71598;46.516;-122.928;2023-08-06T03:21:03;43;40;
81998;PMS5003;71598;46.516;-122.928;2023-08-06T03:23:29;40;40;
81998;PMS5003;71598;46.516;-122.928;2023-08-06T03:25:54;38;36;
81998;PMS5003;71598;46.516;-122.928;2023-08-06T03:28:19;40;39;
81998;PMS5003;71598;46.516;-122.928;2023-08-06T03:30:44;35;35;
81998;PMS5003;71598;46.516;-122.928;2023-08-06T03:33:09;39;37;
81998;PMS5003;71598;46.516;-122.928;2023-08-06T03:35:36;37;36;
81998;PMS5003;71598;46.516;-122.928;2023-08-06T03:38:01;36;36;
81998;PMS5003;71598;46.516;-122.928;2023-08-06T03:40:25;38;37;
81998;PMS5003;71598;46.516;-122.928;2023-08-06T03:42:51;34;34;
81998;PMS5003;71598;46.516;-122.928;2023-08-06T03:45:16;37;36;
81998;PMS5003;71598;46.516;-122.928;2023-08-06T03:47:42;38;35;
81998;PMS5003;71598;46.516;-122.928;2023-08-06T03:50:08;39;38;
81998;PMS5003;71598;46.516;-122.928;2023-08-06T03:52:33;41;40;
81998;PMS5003;71598;46.516;-122.928;2023-08-06T03:54:58;39;39;
81998;PMS5003;71598;46.516;-122.928;2023-08-06T03:57:24;43;43;
81998;PMS5003;71598;46.516;-122.928;2023-08-06T03:59:49;46;46;
81998;PMS5003;71598;46.516;-122.928;2023-08-06T04:02:14;43;41;
81998;PMS5003;71598;46.516;-122.928;2023-08-06T04:04:41;44;43;
81998;PMS5003;71598;46.516;-122.928;2023-08-06T04:07:05;51;50;
81998;PMS5003;71598;46.516;-122.928;2023-08-06T04:09:31;49;48;
81998;PMS5003;71598;46.516;-122.928;2023-08-06T04:11:56;43;42;
81998;PMS5003;71598;46.516;-122.928;2023-08-06T04:14:22;45;43;
81998;PMS5003;71598;46.516;-122.928;2023-08-06T04:16:47;51;47;
81998;PMS5003;71598;46.516;-122.928;2023-08-06T04:19:17;48;48;
81998;PMS5003;71598;46.516;-122.928;2023-08-06T04:21:38;47;45;
81998;PMS5003;71598;46.516;-122.928;2023-08-06T04:24:03;47;47;
81998;PMS5003;71598;46.516;-122.928;2023-08-06T04:26:28;43;42;
81998;PMS5003;71598;46.516;-122.928;2023-08-06T04:28:54;46;46;
81998;PMS5003;71598;46.516;-122.928;2023-08-06T04:31:19;46;45;
81998;PMS5003;71598;46.516;-122.928;2023-08-06T04:33:45;52;47;
81998;PMS5003;71598;46.516;-122.928;2023-08-06T04:36:12;46;46;
81998;PMS5003;71598;46.516;-122.928;2023-08-06T04:38:36;51;49;
81998;PMS5003;71598;46.516;-122.928;2023-08-06T04:41:02;50;49;
81998;PMS5003;71598;46.516;-122.928;2023-08-06T04:43:27;45;44;
81998;PMS5003;71598;46.516;-122.928;2023-08-06T04:45:53;42;40;
81998;PMS5003;71598;46.516;-122.928;2023-08-06T04:48:17;44;43;
81998;PMS5003;71598;46.516;-122.928;2023-08-06T04:50:44;48;46;
81998;PMS5003;71598;46.516;-122.928;2023-08-06T04:53:08;49;47;
81998;PMS5003;71598;46.516;-122.928;2023-08-06T04:55:33;47;47;
81998;PMS5003;71598;46.516;-122.928;2023-08-06T04:57:59;43;42;
81998;PMS5003;71598;46.516;-122.928;2023-08-06T05:00:24;45;44;
81998;PMS5003;71598;46.516;-122.928;2023-08-06T05:02:50;45;43;
81998;PMS5003;71598;46.516;-122.928;2023-08-06T05:05:15;42;41;
81998;PMS5003;71598;46.516;-122.928;2023-08-06T05:07:40;43;42;
81998;PMS5003;71598;46.516;-122.928;2023-08-06T05:10:06;46;44;
81998;PMS5003;71598;46.516;-122.928;2023-08-06T05:12:31;49;48;
81998;PMS5003;71598;46.516;-122.928;2023-08-06T05:14:57;48;46;
81998;PMS5003;71598;46.516;-122.928;2023-08-06T05:17:22;42;41;
81998;PMS5003;71598;46.516;-122.928;2023-08-06T05:19:48;44;44;
81998;PMS5003;71598;46.516;-122.928;2023-08-06T05:22:13;39;39;
81998;PMS5003;71598;46.516;-122.928;2023-08-06T05:24:39;36;34;
81998;PMS5003;71598;46.516;-122.928;2023-08-06T05:27:04;27;27;
81998;PMS5003;71598;46.516;-122.928;2023-08-06T05:29:30;33;32;
81998;PMS5003;71598;46.516;-122.928;2023-08-06T05:31:55;29;29;
81998;PMS5003;71598;46.516;-122.928;2023-08-06T05:34:21;34;34;
81998;PMS5003;71598;46.516;-122.928;2023-08-06T05:36:51;38;37;
81998;PMS5003;71598;46.516;-122.928;2023-08-06T05:39:12;32;32;
81998;PMS5003;71598;46.516;-122.928;2023-08-06T05:41:37;34;34;
81998;PMS5003;71598;46.516;-122.928;2023-08-06T05:44:02;33;33;
81998;PMS5003;71598;46.516;-122.928;2023-08-06T05:46:28;33;33;
81998;PMS5003;71598;46.516;-122.928;2023-08-06T05:48:53;32;32;
81998;PMS5003;71598;46.516;-122.928;2023-08-06T05:51:19;38;37;
81998;PMS5003;71598;46.516;-122.928;2023-08-06T05:53:45;35;33;
81998;PMS5003;71598;46.516;-122.928;2023-08-06T05:56:09;37;37;
81998;PMS5003;71598;46.516;-122.928;2023-08-06T05:58:35;40;38;
81998;PMS5003;71598;46.516;-122.928;2023-08-06T06:01:01;36;34;
81998;PMS5003;71598;46.516;-122.928;2023-08-06T06:03:26;40;40;
81998;PMS5003;71598;46.516;-122.928;2023-08-06T06:05:52;32;32;
81998;PMS5003;71598;46.516;-122.928;2023-08-06T06:08:17;36;35;
81998;PMS5003;71598;46.516;-122.928;2023-08-06T06:10:43;35;34;
81998;PMS5003;71598;46.516;-122.928;2023-08-06T06:13:08;34;33;
81998;PMS5003;71598;46.516;-122.928;2023-08-06T06:15:33;36;36;
81998;PMS5003;71598;46.516;-122.928;2023-08-06T06:17:58;38;38;
81998;PMS5003;71598;46.516;-122.928;2023-08-06T06:20:24;35;35;
81998;PMS5003;71598;46.516;-122.928;2023-08-06T06:22:49;39;37;
81998;PMS5003;71598;46.516;-122.928;2023-08-06T06:25:15;37;37;
81998;PMS5003;71598;46.516;-122.928;2023-08-06T06:27:40;38;38;
81998;PMS5003;71598;46.516;-122.928;2023-08-06T06:30:07;40;40;
81998;PMS5003;71598;46.516;-122.928;2023-08-06T06:32:31;37;37;
81998;PMS5003;71598;46.516;-122.928;2023-08-06T06:34:57;42;40;
81998;PMS5003;71598;46.516;-122.928;2023-08-06T06:37:23;39;38;
81998;PMS5003;71598;46.516;-122.928;2023-08-06T06:39:48;46;43;
81998;PMS5003;71598;46.516;-122.928;2023-08-06T06:42:13;37;37;
81998;PMS5003;71598;46.516;-122.928;2023-08-06T06:44:38;41;39;
81998;PMS5003;71598;46.516;-122.928;2023-08-06T06:47:04;39;39;
81998;PMS5003;71598;46.516;-122.928;2023-08-06T06:49:29;35;33;
81998;PMS5003;71598;46.516;-122.928;2023-08-06T06:51:55;42;38;
81998;PMS5003;71598;46.516;-122.928;2023-08-06T06:54:20;44;42;
81998;PMS5003;71598;46.516;-122.928;2023-08-06T06:56:46;39;38;
81998;PMS5003;71598;46.516;-122.928;2023-08-06T06:59:11;39;38;
81998;PMS5003;71598;46.516;-122.928;2023-08-06T07:01:37;40;40;
81998;PMS5003;71598;46.516;-122.928;2023-08-06T07:04:03;35;34;
81998;PMS5003;71598;46.516;-122.928;2023-08-06T07:06:29;37;37;
81998;PMS5003;71598;46.516;-122.928;2023-08-06T07:08:54;34;32;
81998;PMS5003;71598;46.516;-122.928;2023-08-06T07:11:19;35;35;
81998;PMS5003;71598;46.516;-122.928;2023-08-06T07:13:45;41;40;
81998;PMS5003;71598;46.516;-122.928;2023-08-06T07:16:10;36;36;
81998;PMS5003;71598;46.516;-122.928;2023-08-06T07:18:35;33;32;
81998;PMS5003;71598;46.516;-122.928;2023-08-06T07:21:01;39;38;
81998;PMS5003;71598;46.516;-122.928;2023-08-06T07:23:26;40;38;
81998;PMS5003;71598;46.516;-122.928;2023-08-06T07:25:52;44;44;
81998;PMS5003;71598;46.516;-122.928;2023-08-06T07:28:17;39;39;
81998;PMS5003;71598;46.516;-122.928;2023-08-06T07:30:43;42;41;
81998;PMS5003;71598;46.516;-122.928;2023-08-06T07:33:07;39;39;
81998;PMS5003;71598;46.516;-122.928;2023-08-06T07:35:32;40;39;
81998;PMS5003;71598;46.516;-122.928;2023-08-06T07:37:59;32;32;
81998;PMS5003;71598;46.516;-122.928;2023-08-06T07:40:23;42;40;
81998;PMS5003;71598;46.516;-122.928;2023-08-06T07:42:48;40;39;
81998;PMS5003;71598;46.516;-122.928;2023-08-06T07:45:14;39;39;
81998;PMS5003;71598;46.516;-122.928;2023-08-06T07:47:40;32;32;
81998;PMS5003;71598;46.516;-122.928;2023-08-06T07:50:05;39;37;
81998;PMS5003;71598;46.516;-122.928;2023-08-06T07:52:30;34;33;
81998;PMS5003;71598;46.516;-122.928;2023-08-06T07:54:55;34;34;
81998;PMS5003;71598;46.516;-122.928;2023-08-06T07:57:20;36;35;
81998;PMS5003;71598;46.516;-122.928;2023-08-06T07:59:45;36;35;
81998;PMS5003;71598;46.516;-122.928;2023-08-06T08:02:11;38;38;
81998;PMS5003;71598;46.516;-122.928;2023-08-06T08:04:37;38;36;
81998;PMS5003;71598;46.516;-122.928;2023-08-06T08:07:02;30;30;
81998;PMS5003;71598;46.516;-122.928;2023-08-06T08:09:28;33;32;
81998;PMS5003;71598;46.516;-122.928;2023-08-06T08:11:53;32;30;
81998;PMS5003;71598;46.516;-122.928;2023-08-06T08:14:18;33;32;
81998;PMS5003;71598;46.516;-122.928;2023-08-06T08:16:44;37;37;
81998;PMS5003;71598;46.516;-122.928;2023-08-06T08:19:10;33;32;
81998;PMS5003;71598;46.516;-122.928;2023-08-06T08:21:35;34;34;
81998;PMS5003;71598;46.516;-122.928;2023-08-06T08:24:04;33;32;
81998;PMS5003;71598;46.516;-122.928;2023-08-06T08:26:26;32;31;
81998;PMS5003;71598;46.516;-122.928;2023-08-06T08:28:51;34;32;
81998;PMS5003;71598;46.516;-122.928;2023-08-06T08:31:16;36;34;
81998;PMS5003;71598;46.516;-122.928;2023-08-06T08:33:41;36;35;
81998;PMS5003;71598;46.516;-122.928;2023-08-06T08:36:07;31;30;
81998;PMS5003;71598;46.516;-122.928;2023-08-06T08:38:34;34;32;
81998;PMS5003;71598;46.516;-122.928;2023-08-06T08:40:58;33;32;
81998;PMS5003;71598;46.516;-122.928;2023-08-06T08:43:24;39;37;
81998;PMS5003;71598;46.516;-122.928;2023-08-06T08:45:50;35;34;
81998;PMS5003;71598;46.516;-122.928;2023-08-06T08:48:15;34;34;
81998;PMS5003;71598;46.516;-122.928;2023-08-06T08:50:40;34;32;
81998;PMS5003;71598;46.516;-122.928;2023-08-06T08:53:06;37;36;
81998;PMS5003;71598;46.516;-122.928;2023-08-06T08:55:31;36;35;
81998;PMS5003;71598;46.516;-122.928;2023-08-06T08:57:57;33;32;
81998;PMS5003;71598;46.516;-122.928;2023-08-06T09:00:22;37;36;
81998;PMS5003;71598;46.516;-122.928;2023-08-06T09:02:48;31;31;
81998;PMS5003;71598;46.516;-122.928;2023-08-06T09:05:13;30;29;
81998;PMS5003;71598;46.516;-122.928;2023-08-06T09:07:41;33;32;
81998;PMS5003;71598;46.516;-122.928;2023-08-06T09:10:04;31;29;
81998;PMS5003;71598;46.516;-122.928;2023-08-06T09:12:29;35;34;
81998;PMS5003;71598;46.516;-122.928;2023-08-06T09:14:55;34;33;
81998;PMS5003;71598;46.516;-122.928;2023-08-06T09:17:20;33;31;
81998;PMS5003;71598;46.516;-122.928;2023-08-06T09:19:46;38;35;
81998;PMS5003;71598;46.516;-122.928;2023-08-06T09:22:11;29;28;
81998;PMS5003;71598;46.516;-122.928;2023-08-06T09:24:38;28;27;
81998;PMS5003;71598;46.516;-122.928;2023-08-06T09:27:02;29;29;
81998;PMS5003;71598;46.516;-122.928;2023-08-06T09:29:29;32;32;
81998;PMS5003;71598;46.516;-122.928;2023-08-06T09:31:53;36;34;
81998;PMS5003;71598;46.516;-122.928;2023-08-06T09:34:18;32;32;
81998;PMS5003;71598;46.516;-122.928;2023-08-06T09:36:43;36;36;
81998;PMS5003;71598;46.516;-122.928;2023-08-06T09:39:13;32;31;
81998;PMS5003;71598;46.516;-122.928;2023-08-06T09:41:34;32;31;
81998;PMS5003;71598;46.516;-122.928;2023-08-06T09:43:59;33;33;
81998;PMS5003;71598;46.516;-122.928;2023-08-06T09:46:25;33;32;
81998;PMS5003;71598;46.516;-122.928;2023-08-06T09:48:51;36;36;
81998;PMS5003;71598;46.516;-122.928;2023-08-06T09:51:16;31;31;
81998;PMS5003;71598;46.516;-122.928;2023-08-06T09:53:42;42;41;
81998;PMS5003;71598;46.516;-122.928;2023-08-06T09:56:07;33;31;
81998;PMS5003;71598;46.516;-122.928;2023-08-06T09:58:33;35;33;
81998;PMS5003;71598;46.516;-122.928;2023-08-06T10:00:58;34;33;
81998;PMS5003;71598;46.516;-122.928;2023-08-06T10:03:23;32;31;
81998;PMS5003;71598;46.516;-122.928;2023-08-06T10:05:49;43;42;
81998;PMS5003;71598;46.516;-122.928;2023-08-06T10:08:15;35;33;
81998;PMS5003;71598;46.516;-122.928;2023-08-06T10:10:39;32;32;
81998;PMS5003;71598;46.516;-122.928;2023-08-06T10:13:05;33;33;
81998;PMS5003;71598;46.516;-122.928;2023-08-06T10:15:31;29;28;
81998;PMS5003;71598;46.516;-122.928;2023-08-06T10:17:56;29;28;
81998;PMS5003;71598;46.516;-122.928;2023-08-06T10:20:21;30;30;
81998;PMS5003;71598;46.516;-122.928;2023-08-06T10:22:46;35;35;
81998;PMS5003;71598;46.516;-122.928;2023-08-06T10:25:15;31;30;
81998;PMS5003;71598;46.516;-122.928;2023-08-06T10:27:40;36;34;
81998;PMS5003;71598;46.516;-122.928;2023-08-06T10:30:36;30;29;
81998;PMS5003;71598;46.516;-122.928;2023-08-06T10:32:46;31;30;
81998;PMS5003;71598;46.516;-122.928;2023-08-06T10:34:53;32;31;
81998;PMS5003;71598;46.516;-122.928;2023-08-06T10:37:19;31;30;
81998;PMS5003;71598;46.516;-122.928;2023-08-06T10:39:48;35;34;
81998;PMS5003;71598;46.516;-122.928;2023-08-06T10:42:19;33;32;
81998;PMS5003;71598;46.516;-122.928;2023-08-06T10:44:35;31;30;
81998;PMS5003;71598;46.516;-122.928;2023-08-06T10:47:17;27;26;
81998;PMS5003;71598;46.516;-122.928;2023-08-06T10:49:26;28;28;
81998;PMS5003;71598;46.516;-122.928;2023-08-06T10:51:51;28;28;
81998;PMS5003;71598;46.516;-122.928;2023-08-06T10:54:16;32;32;
81998;PMS5003;71598;46.516;-122.928;2023-08-06T10:56:42;31;30;
81998;PMS5003;71598;46.516;-122.928;2023-08-06T10:59:07;30;30;
81998;PMS5003;71598;46.516;-122.928;2023-08-06T11:01:33;27;27;
81998;PMS5003;71598;46.516;-122.928;2023-08-06T11:04:02;28;28;
81998;PMS5003;71598;46.516;-122.928;2023-08-06T11:06:24;30;30;
81998;PMS5003;71598;46.516;-122.928;2023-08-06T11:08:51;29;29;
81998;PMS5003;71598;46.516;-122.928;2023-08-06T11:11:15;27;26;
81998;PMS5003;71598;46.516;-122.928;2023-08-06T11:13:40;25;25;
81998;PMS5003;71598;46.516;-122.928;2023-08-06T11:16:05;27;27;
81998;PMS5003;71598;46.516;-122.928;2023-08-06T11:18:30;27;26;
81998;PMS5003;71598;46.516;-122.928;2023-08-06T11:20:55;29;29;
81998;PMS5003;71598;46.516;-122.928;2023-08-06T11:23:21;26;25;
81998;PMS5003;71598;46.516;-122.928;2023-08-06T11:25:46;28;27;
81998;PMS5003;71598;46.516;-122.928;2023-08-06T11:28:11;27;26;
81998;PMS5003;71598;46.516;-122.928;2023-08-06T11:30:37;27;27;
81998;PMS5003;71598;46.516;-122.928;2023-08-06T11:33:03;28;27;
81998;PMS5003;71598;46.516;-122.928;2023-08-06T11:35:28;26;25;
81998;PMS5003;71598;46.516;-122.928;2023-08-06T11:37:53;27;27;
81998;PMS5003;71598;46.516;-122.928;2023-08-06T11:40:19;27;25;
81998;PMS5003;71598;46.516;-122.928;2023-08-06T11:42:43;31;31;
81998;PMS5003;71598;46.516;-122.928;2023-08-06T11:45:09;29;29;
81998;PMS5003;71598;46.516;-122.928;2023-08-06T11:47:34;29;28;
81998;PMS5003;71598;46.516;-122.928;2023-08-06T11:50:00;29;28;
81998;PMS5003;71598;46.516;-122.928;2023-08-06T11:52:26;30;29;
81998;PMS5003;71598;46.516;-122.928;2023-08-06T11:55:07;25;25;
81998;PMS5003;71598;46.516;-122.928;2023-08-06T11:57:16;27;26;
81998;PMS5003;71598;46.516;-122.928;2023-08-06T11:59:42;25;24;
81998;PMS5003;71598;46.516;-122.928;2023-08-06T12:02:09;26;26;
81998;PMS5003;71598;46.516;-122.928;2023-08-06T12:04:33;23;22;
81998;PMS5003;71598;46.516;-122.928;2023-08-06T12:07:04;26;25;
81998;PMS5003;71598;46.516;-122.928;2023-08-06T12:09:23;25;25;
81998;PMS5003;71598;46.516;-122.928;2023-08-06T12:11:48;26;25;
81998;PMS5003;71598;46.516;-122.928;2023-08-06T12:14:13;24;23;
81998;PMS5003;71598;46.516;-122.928;2023-08-06T12:16:38;23;23;
81998;PMS5003;71598;46.516;-122.928;2023-08-06T12:19:03;24;24;
81998;PMS5003;71598;46.516;-122.928;2023-08-06T12:21:29;25;24;
81998;PMS5003;71598;46.516;-122.928;2023-08-06T12:23:54;20;20;
81998;PMS5003;71598;46.516;-122.928;2023-08-06T12:26:20;22;22;
81998;PMS5003;71598;46.516;-122.928;2023-08-06T12:28:45;25;25;
81998;PMS5003;71598;46.516;-122.928;2023-08-06T12:31:11;23;23;
81998;PMS5003;71598;46.516;-122.928;2023-08-06T12:33:37;26;24;
81998;PMS5003;71598;46.516;-122.928;2023-08-06T12:36:02;29;28;
81998;PMS5003;71598;46.516;-122.928;2023-08-06T12:38:28;24;24;
81998;PMS5003;71598;46.516;-122.928;2023-08-06T12:40:55;25;25;
81998;PMS5003;71598;46.516;-122.928;2023-08-06T12:43:19;25;23;
81998;PMS5003;71598;46.516;-122.928;2023-08-06T12:45:44;25;24;
81998;PMS5003;71598;46.516;-122.928;2023-08-06T12:48:10;24;23;
81998;PMS5003;71598;46.516;-122.928;2023-08-06T12:50:35;21;21;
81998;PMS5003;71598;46.516;-122.928;2023-08-06T12:53:01;20;20;
81998;PMS5003;71598;46.516;-122.928;2023-08-06T12:55:26;23;22;
81998;PMS5003;71598;46.516;-122.928;2023-08-06T12:57:51;21;21;
81998;PMS5003;71598;46.516;-122.928;2023-08-06T13:00:17;23;23;
81998;PMS5003;71598;46.516;-122.928;2023-08-06T13:02:49;24;23;
81998;PMS5003;71598;46.516;-122.928;2023-08-06T13:05:14;24;22;
81998;PMS5003;71598;46.516;-122.928;2023-08-06T13:07:40;23;23;
81998;PMS5003;71598;46.516;-122.928;2023-08-06T13:10:06;21;21;
81998;PMS5003;71598;46.516;-122.928;2023-08-06T13:12:31;20;20;
81998;PMS5003;71598;46.516;-122.928;2023-08-06T13:14:56;24;23;
81998;PMS5003;71598;46.516;-122.928;2023-08-06T13:17:22;20;19;
81998;PMS5003;71598;46.516;-122.928;2023-08-06T13:19:48;26;25;
81998;PMS5003;71598;46.516;-122.928;2023-08-06T13:22:14;21;19;
81998;PMS5003;71598;46.516;-122.928;2023-08-06T13:24:39;23;23;
81998;PMS5003;71598;46.516;-122.928;2023-08-06T13:27:06;20;20;
81998;PMS5003;71598;46.516;-122.928;2023-08-06T13:29:30;19;19;
81998;PMS5003;71598;46.516;-122.928;2023-08-06T13:31:56;24;23;
81998;PMS5003;71598;46.516;-122.928;2023-08-06T13:34:21;19;18;
81998;PMS5003;71598;46.516;-122.928;2023-08-06T13:36:47;20;20;
81998;PMS5003;71598;46.516;-122.928;2023-08-06T13:39:13;24;24;
81998;PMS5003;71598;46.516;-122.928;2023-08-06T13:41:40;22;21;
81998;PMS5003;71598;46.516;-122.928;2023-08-06T13:44:03;18;16;
81998;PMS5003;71598;46.516;-122.928;2023-08-06T13:46:29;22;21;
81998;PMS5003;71598;46.516;-122.928;2023-08-06T13:48:55;19;18;
81998;PMS5003;71598;46.516;-122.928;2023-08-06T13:51:20;23;22;
81998;PMS5003;71598;46.516;-122.928;2023-08-06T13:53:46;20;20;
81998;PMS5003;71598;46.516;-122.928;2023-08-06T13:56:11;19;19;
81998;PMS5003;71598;46.516;-122.928;2023-08-06T13:58:36;20;20;
81998;PMS5003;71598;46.516;-122.928;2023-08-06T14:01:01;18;17;
81998;PMS5003;71598;46.516;-122.928;2023-08-06T14:03:26;24;23;
81998;PMS5003;71598;46.516;-122.928;2023-08-06T14:05:51;16;16;
81998;PMS5003;71598;46.516;-122.928;2023-08-06T14:08:17;19;19;
81998;PMS5003;71598;46.516;-122.928;2023-08-06T14:10:42;17;17;
81998;PMS5003;71598;46.516;-122.928;2023-08-06T14:13:07;21;20;
81998;PMS5003;71598;46.516;-122.928;2023-08-06T14:15:32;16;16;
81998;PMS5003;71598;46.516;-122.928;2023-08-06T14:17:58;21;21;
81998;PMS5003;71598;46.516;-122.928;2023-08-06T14:20:24;19;19;
81998;PMS5003;71598;46.516;-122.928;2023-08-06T14:22:49;21;20;
81998;PMS5003;71598;46.516;-122.928;2023-08-06T14:25:14;19;19;
81998;PMS5003;71598;46.516;-122.928;2023-08-06T14:27:39;18;18;
81998;PMS5003;71598;46.516;-122.928;2023-08-06T14:30:05;15;15;
81998;PMS5003;71598;46.516;-122.928;2023-08-06T14:32:30;20;19;
81998;PMS5003;71598;46.516;-122.928;2023-08-06T14:34:55;20;20;
81998;PMS5003;71598;46.516;-122.928;2023-08-06T14:37:20;16;16;
81998;PMS5003;71598;46.516;-122.928;2023-08-06T14:39:46;16;16;
81998;PMS5003;71598;46.516;-122.928;2023-08-06T14:42:13;16;15;
81998;PMS5003;71598;46.516;-122.928;2023-08-06T14:44:36;19;19;
81998;PMS5003;71598;46.516;-122.928;2023-08-06T14:47:01;17;17;
81998;PMS5003;71598;46.516;-122.928;2023-08-06T14:49:26;19;18;
81998;PMS5003;71598;46.516;-122.928;2023-08-06T14:51:52;17;17;
81998;PMS5003;71598;46.516;-122.928;2023-08-06T14:54:17;19;18;
81998;PMS5003;71598;46.516;-122.928;2023-08-06T14:56:42;20;20;
81998;PMS5003;71598;46.516;-122.928;2023-08-06T14:59:08;19;19;
81998;PMS5003;71598;46.516;-122.928;2023-08-06T15:01:34;17;17;
81998;PMS5003;71598;46.516;-122.928;2023-08-06T15:03:59;19;17;
81998;PMS5003;71598;46.516;-122.928;2023-08-06T15:06:24;17;17;
81998;PMS5003;71598;46.516;-122.928;2023-08-06T15:08:49;17;17;
81998;PMS5003;71598;46.516;-122.928;2023-08-06T15:11:15;14;14;
81998;PMS5003;71598;46.516;-122.928;2023-08-06T15:13:41;18;18;
81998;PMS5003;71598;46.516;-122.928;2023-08-06T15:16:06;16;16;
81998;PMS5003;71598;46.516;-122.928;2023-08-06T15:18:31;17;17;